Flight Track Log - Related Links

Times and Time Zones

All times are in EDT time to prevent confusion due to time zone crossing. See the SKW5550 flight status page for this flight to view local times or setup timezone preferences in your user account.

Time Position Orientation Groundspeed Altitude Reporting Facility
EDT Latitude Longitude Course Direction KTS MPH feet Rate Location/Type
Mon 10:56:27 AM 44.5411 -108.9914 156° South 164 189 6,300  Level Salt Lake Center
Mon 10:57:00 AM 44.3421 -108.8419 157° South  Level Estimated
Mon 10:57:29 AM 44.5717 -108.9428 49° Northeast 180 207 8,400  Level Salt Lake Center
Mon 10:58:00 AM 44.2424 -108.7763 155° Southeast  Level FlightAware Approximate
Mon 10:58:31 AM 44.5122 -108.8906 148° Southeast 244 281 10,400  Level Salt Lake Center
Mon 10:59:00 AM 44.1534 -108.6856 157° South  Level Estimated
Mon 10:59:33 AM 44.4336 -108.8603 165° South 273 314 12,400  Level Salt Lake Center
Mon 11:00:00 AM 44.0515 -108.6271 158° South  Level FlightAware Approximate
Mon 11:00:35 AM 44.3567 -108.8042 152° Southeast 294 338 14,600  Level Salt Lake Center
Mon 11:01:00 AM 43.9628 -108.5363 156° South  Level Estimated
Mon 11:01:36 AM 44.2683 -108.7181 145° Southeast 317 365 17,400  Level Salt Lake Center
Mon 11:02:38 AM 44.1922 -108.6475 146° Southeast 324 373 19,200 1,355 Climbing Salt Lake Center
Mon 11:03:40 AM 44.1139 -108.5761 147° Southeast 333 383 20,200 1,161 Climbing Salt Lake Center
Mon 11:04:42 AM 44.0292 -108.4994 147° Southeast 354 407 21,600 1,268 Climbing Salt Lake Center
Mon 11:05:43 AM 43.9439 -108.4206 146° Southeast 367 422 22,800 1,171 Climbing Salt Lake Center
Mon 11:06:45 AM 43.8569 -108.3403 146° Southeast 375 432 24,000 1,113 Climbing Salt Lake Center
Mon 11:07:47 AM 43.7692 -108.2606 147° Southeast 378 435 25,100 1,065 Climbing Salt Lake Center
Mon 11:08:49 AM 43.6633 -108.1625 146° Southeast 383 441 26,200 1,016 Climbing Salt Lake Center
Mon 11:09:51 AM 43.5736 -108.0822 147° Southeast 387 445 27,200 927 Climbing Salt Lake Center
Mon 11:10:52 AM 43.4839 -107.9994 146° Southeast 389 448 28,100 780 Climbing Salt Lake Center
Mon 11:11:54 AM 43.3931 -107.9194 147° Southeast 388 447 28,800 629 Climbing Salt Lake Center
Mon 11:12:56 AM 43.3017 -107.8378 147° Southeast 391 450 29,400 484 Climbing Salt Lake Center
Mon 11:13:58 AM 43.2092 -107.7547 147° Southeast 398 458 29,800 484 Climbing Salt Lake Center
Mon 11:15:00 AM 43.0956 -107.6536 147° Southeast 405 466 30,400 532 Climbing Salt Lake Center
Mon 11:16:02 AM 43.0008 -107.5700 147° Southeast 406 467 30,900 290 Climbing Salt Lake Center
Mon 11:17:04 AM 42.9078 -107.4883 147° Southeast 406 467 31,000 49 Climbing Salt Lake Center
Mon 11:18:05 AM 42.7969 -107.3919 147° Southeast 419 482 31,000  Level Salt Lake Center
Mon 11:19:07 AM 42.7017 -107.3064 147° Southeast 425 489 31,000  Level Salt Lake Center
Mon 11:20:09 AM 42.6064 -107.2239 147° Southeast 425 489 31,000  Level Salt Lake Center
Mon 11:21:11 AM 42.4931 -107.1367 150° Southeast 420 483 31,000  Level Salt Lake Center
Mon 11:22:13 AM 42.3944 -107.0664 152° Southeast 418 481 31,000  Level Salt Lake Center
Mon 11:23:15 AM 42.2803 -106.9853 152° Southeast 415 478 31,000  Level Denver Center
Mon 11:24:17 AM 42.1831 -106.9153 152° Southeast 415 478 31,000  Level Denver Center
Mon 11:25:19 AM 42.0686 -106.8344 152° Southeast 416 479 31,000  Level Denver Center
Mon 11:26:21 AM 41.9700 -106.7658 153° Southeast 417 480 31,000 145 Level Denver Center
Mon 11:27:23 AM 41.8564 -106.6839 152° Southeast 415 478 31,300 581 Climbing Denver Center
Mon 11:28:25 AM 41.7583 -106.6164 153° Southeast 414 476 32,200 726 Climbing Denver Center
Mon 11:29:27 AM 41.6494 -106.5400 152° Southeast 399 459 32,800 387 Climbing Denver Center
Mon 11:30:29 AM 41.5592 -106.4772 153° Southeast 406 467 33,000 97 Climbing Denver Center
Mon 11:31:31 AM 41.4450 -106.3975 152° Southeast 414 476 33,000 -145 Level Denver Center
Mon 11:32:33 AM 41.3431 -106.3283 153° Southeast 426 490 32,700 -387 Descending Denver Center
Mon 11:33:35 AM 41.2300 -106.2508 153° Southeast 438 504 32,200 -532 Descending Denver Center
Mon 11:34:37 AM 41.1067 -106.1667 153° Southeast 445 512 31,600 -532 Descending Denver Center
Mon 11:35:39 AM 41.0069 -106.0986 153° Southeast 386 444 31,100 -384 Descending Denver Center
Mon 11:36:42 AM 40.9175 -106.0381 153° Southeast 354 407 30,800 -432 Descending Denver Center
Mon 11:37:44 AM 40.8306 -105.9794 153° Southeast 351 404 30,200 -532 Descending Denver Center
Mon 11:38:46 AM 40.7422 -105.9186 152° Southeast 356 410 29,700 -774 Descending Denver Center
Mon 11:39:48 AM 40.6564 -105.8608 153° Southeast 351 404 28,600 -1,016 Descending Denver Center
Mon 11:40:50 AM 40.5736 -105.8058 153° Southeast 340 391 27,600 -774 Descending Denver Center
Mon 11:41:52 AM 40.4733 -105.7381 153° Southeast 337 388 27,000 -387 Descending Denver Center
Mon 11:42:54 AM 40.3897 -105.6822 153° Southeast 339 390 26,800 -484 Descending Denver Center
Mon 11:43:56 AM 40.3556 -105.5783 113° Southeast 347 399 26,000 -387 Descending Denver Center
Mon 11:44:58 AM 40.4364 -105.5272 26° Northeast 341 392 26,000 -339 Level Denver Center
Mon 11:46:00 AM 40.5047 -105.6086 318° Northwest 359 413 25,300 -823 Descending Denver Center
Mon 11:47:02 AM 40.5400 -105.7306 291° West 360 414 24,300 -1,065 Descending Denver Center
Mon 11:48:04 AM 40.5778 -105.8731 289° West 348 400 23,100 -1,113 Descending Denver Center
Mon 11:49:06 AM 40.5939 -105.9883 280° West 330 380 22,000 -1,016 Descending Denver Center
Mon 11:50:08 AM 40.5172 -106.0333 204° Southwest 330 380 21,000 -919 Descending Denver Center
Mon 11:51:10 AM 40.4233 -106.0197 174° South 338 389 20,100 -484 Descending Denver Center
Mon 11:52:12 AM 40.3389 -105.9942 167° South 318 366 20,000 -290 Descending Denver Center
Mon 11:53:14 AM 40.3269 -105.8789 98° East 342 394 19,500 -484 Descending Denver Center
Mon 11:54:16 AM 40.3767 -105.7339 66° East 363 418 19,000 -480 Descending Denver Center
Mon 11:55:19 AM 40.3811 -105.6081 87° East 357 411 18,500 -720 Descending Denver Center
Mon 11:56:21 AM 40.3628 -105.4844 101° East 347 399 17,500 -726 Descending Denver Center
Mon 11:57:23 AM 40.3433 -105.3486 101° East 355 409 17,000 -1,210 Descending Denver Center
Mon 11:58:25 AM 40.3253 -105.2183 100° East 346 398 15,000 -1,887 Descending Denver Center
Mon 11:59:27 AM 40.3097 -105.0978 100° East 338 389 13,100 -919 Descending Denver Center
Mon 12:00:29 PM 40.2939 -104.9817 100° East 306 352 13,100 -242 Level Denver Center
Mon 12:01:31 PM 40.2786 -104.8817 101° East 284 327 12,600 -823 Descending Denver Center
Mon 12:02:33 PM 40.2650 -104.7839 100° East 276 318 11,400 -823 Descending Denver Center
Mon 12:03:35 PM 40.2486 -104.6806 102° East 271 312 10,900 -871 Descending Denver Center
Mon 12:04:37 PM 40.1872 -104.6500 159° South 263 303 9,600 -919 Descending Denver Center
Mon 12:05:39 PM 40.1156 -104.6608 187° South 243 280 9,000 -288 Descending Denver Center
Mon 12:06:42 PM 40.0589 -104.6567 177° South 208 239 9,000 -432 Level Denver Center
Mon 12:07:44 PM 39.9958 -104.6586 181° South 211 243 8,100 -968 Descending Denver Center
Mon 12:08:46 PM 39.9403 -104.6589 180° South 201 231 7,000 -919 Descending Denver Center
Mon 12:09:48 PM 39.8958 -104.6594 181° South 154 177 6,200 -774 Descending Denver Center
Mon 12:10:50 PM 39.8556 -104.6594 180° South 143 165 5,400 -774 Descending Denver Center
Mon 12:12:00 PM 39.8500 -104.6667 180° South  Level FlightAware Approximate
Mon 12:19:00 PM 39.8617 -104.6732 180° South  Level Estimated

Login

Don't have an account? Register now (free) for customized features, flight alerts, and more!